Time;durP1;ratioP1;P1;durP2;ratioP2;P2;SDS_P1;SDS_P2;PMS_P1;PMS_P2;Temp;Humidity;BMP_temperature;BMP_pressure;BME280_temperature;BME280_humidity;BME280_pressure;Samples;Min_cycle;Max_cycle;Signal;HPM_P1;HPM_P2
2021/10/01 00:02:08;;;;;;;8.88;2.72;;;;;;;-146.90;100.00;60518.97;5009334;28;20095;-79
2021/10/01 00:04:34;;;;;;;8.48;1.95;;;;;;;-146.90;100.00;60518.97;5010665;28;20033;-79
2021/10/01 00:06:59;;;;;;;11.52;2.45;;;;;;;-146.90;100.00;60518.97;5009281;28;20034;-79
2021/10/01 00:09:25;;;;;;;8.35;2.35;;;;;;;-146.90;100.00;60518.97;5010508;28;20061;-79
2021/10/01 00:11:54;;;;;;;8.50;2.40;;;;;;;-146.90;100.00;60518.97;5009901;28;20022;-79
2021/10/01 00:14:24;;;;;;;8.57;2.30;;;;;;;-146.90;100.00;60518.97;5009778;28;20109;-78
2021/10/01 00:16:50;;;;;;;7.10;2.33;;;;;;;-146.90;100.00;60518.97;5009348;28;20176;-78
2021/10/01 00:19:16;;;;;;;11.98;2.80;;;;;;;-146.90;100.00;60518.97;5008380;28;20472;-78
2021/10/01 00:21:41;;;;;;;8.68;2.15;;;;;;;-146.90;100.00;60518.97;5008856;28;20040;-79
2021/10/01 00:24:09;;;;;;;10.30;2.40;;;;;;;-146.90;100.00;60518.97;5009592;28;20104;-79
2021/10/01 00:26:36;;;;;;;7.32;2.40;;;;;;;-146.90;100.00;60518.97;5009698;28;20468;-78
2021/10/01 00:29:02;;;;;;;8.80;2.40;;;;;;;-146.90;100.00;60518.97;5009601;28;20040;-76
2021/10/01 00:31:27;;;;;;;11.38;2.38;;;;;;;-146.90;100.00;60518.97;5009731;28;20018;-78
2021/10/01 00:33:52;;;;;;;15.82;2.45;;;;;;;-146.90;100.00;60518.97;5008186;28;20092;-76
2021/10/01 00:36:18;;;;;;;8.60;2.33;;;;;;;-146.90;100.00;60518.97;5024540;28;20456;-78
2021/10/01 00:38:43;;;;;;;8.25;2.40;;;;;;;-146.90;100.00;60518.97;5009903;28;20404;-78
2021/10/01 00:41:08;;;;;;;9.20;2.78;;;;;;;-146.90;100.00;60518.97;5007541;28;20049;-77
2021/10/01 00:43:34;;;;;;;6.45;2.25;;;;;;;-146.90;100.00;60518.97;5009853;28;20026;-78
2021/10/01 00:45:59;;;;;;;8.48;2.53;;;;;;;-146.90;100.00;60518.97;5008404;28;20087;-78
2021/10/01 00:48:24;;;;;;;9.65;2.42;;;;;;;-146.90;100.00;60518.97;5009955;28;20034;-78
2021/10/01 00:50:50;;;;;;;9.63;2.50;;;;;;;-146.90;100.00;60518.97;5022952;28;20025;-78
2021/10/01 00:53:16;;;;;;;10.07;2.55;;;;;;;-146.90;100.00;60518.97;4988576;28;20418;-78
2021/10/01 00:55:41;;;;;;;8.20;2.28;;;;;;;-146.90;100.00;60518.97;4988249;28;20101;-78
2021/10/01 00:58:07;;;;;;;10.38;2.50;;;;;;;-146.90;100.00;60518.97;4987865;28;20117;-80
2021/10/01 01:00:32;;;;;;;9.07;2.33;;;;;;;-146.90;100.00;60518.97;4989636;28;20456;-78
2021/10/01 01:03:00;;;;;;;9.73;2.17;;;;;;;-146.90;100.00;60518.97;4989449;28;20030;-78
2021/10/01 01:05:42;;;;;;;9.70;2.40;;;;;;;-146.90;100.00;60518.97;4972008;28;20033;-78
2021/10/01 01:08:08;;;;;;;8.80;2.40;;;;;;;-146.90;100.00;60518.97;4988264;28;20079;-79
2021/10/01 01:10:52;;;;;;;12.65;2.83;;;;;;;-146.90;100.00;60518.97;4989694;28;20026;-75
2021/10/01 01:13:34;;;;;;;7.35;2.22;;;;;;;-146.90;100.00;60518.97;4988357;28;20026;-79
2021/10/01 01:16:05;;;;;;;12.65;2.40;;;;;;;-146.90;100.00;60518.97;4987314;28;20030;-79
2021/10/01 01:18:35;;;;;;;6.03;2.10;;;;;;;-146.90;100.00;60518.97;4987586;28;20085;-79
2021/10/01 01:21:01;;;;;;;16.50;2.60;;;;;;;-146.90;100.00;60518.97;4987637;28;20034;-78
2021/10/01 01:23:49;;;;;;;9.27;2.55;;;;;;;-146.90;100.00;60518.97;4989562;28;20018;-77
2021/10/01 01:26:39;;;;;;;6.55;2.15;;;;;;;-146.90;100.00;60518.97;4988757;28;20376;-77
2021/10/01 01:29:18;;;;;;;10.57;2.85;;;;;;;-146.90;100.00;60518.97;4989023;28;20237;-78
2021/10/01 01:31:56;;;;;;;11.10;2.70;;;;;;;-146.90;100.00;60518.97;4988620;28;20383;-79
2021/10/01 01:34:29;;;;;;;8.50;2.40;;;;;;;-146.90;100.00;60518.97;4972223;28;20403;-77
2021/10/01 01:37:02;;;;;;;10.27;2.95;;;;;;;-146.90;100.00;60518.97;4987747;28;20057;-78
2021/10/01 01:39:28;;;;;;;7.63;2.55;;;;;;;-146.90;100.00;60518.97;4988124;28;20042;-77
2021/10/01 01:41:55;;;;;;;9.65;2.78;;;;;;;-146.90;100.00;60518.97;4987977;28;20124;-78
2021/10/01 01:44:21;;;;;;;10.45;3.17;;;;;;;-146.90;100.00;60518.97;4987896;28;20116;-79
2021/10/01 01:46:47;;;;;;;10.05;2.38;;;;;;;-146.90;100.00;60518.97;4987700;28;20472;-79
2021/10/01 01:49:14;;;;;;;11.70;2.85;;;;;;;-146.90;100.00;60518.97;4987634;28;20664;-78
2021/10/01 01:51:39;;;;;;;10.63;2.30;;;;;;;-146.90;100.00;60518.97;4996470;28;20219;-78
2021/10/01 01:54:05;;;;;;;7.15;2.30;;;;;;;-146.90;100.00;60518.97;5007023;28;20025;-79
2021/10/01 01:56:31;;;;;;;11.95;2.42;;;;;;;-146.90;100.00;60518.97;5007211;28;20022;-79
2021/10/01 01:58:58;;;;;;;10.57;2.35;;;;;;;-146.90;100.00;60518.97;5006976;28;20160;-79
2021/10/01 02:01:23;;;;;;;9.20;2.50;;;;;;;-146.90;100.00;60518.97;5007617;28;20109;-79
2021/10/01 02:03:49;;;;;;;13.32;2.53;;;;;;;-146.90;100.00;60518.97;5007259;28;20587;-79
2021/10/01 02:06:16;;;;;;;7.15;2.40;;;;;;;-146.90;100.00;60518.97;5006936;28;20034;-80
2021/10/01 02:08:41;;;;;;;10.13;2.70;;;;;;;-146.90;100.00;60518.97;5007632;28;20022;-79
2021/10/01 02:11:07;;;;;;;7.85;2.63;;;;;;;-146.90;100.00;60518.97;5006894;28;20590;-79
2021/10/01 02:13:33;;;;;;;8.15;2.35;;;;;;;-146.90;100.00;60518.97;5007251;28;20057;-79
2021/10/01 02:15:59;;;;;;;9.00;2.38;;;;;;;-146.90;100.00;60518.97;5006391;28;20026;-79
2021/10/01 02:18:27;;;;;;;7.57;2.30;;;;;;;-146.90;100.00;60518.97;5007491;28;20057;-79
2021/10/01 02:20:52;;;;;;;5.82;2.33;;;;;;;-146.90;100.00;60518.97;5006717;28;20030;-79
2021/10/01 02:23:18;;;;;;;11.35;2.53;;;;;;;-146.90;100.00;60518.97;5007504;28;20033;-79
2021/10/01 02:28:46;;;;;;;12.25;2.72;;;;;;;-146.90;100.00;60518.97;5008690;28;20052;-79
2021/10/01 02:31:23;;;;;;;9.57;2.30;;;;;;;-146.90;100.00;60518.97;5009506;28;20033;-79
2021/10/01 02:33:50;;;;;;;5.55;2.05;;;;;;;-146.90;100.00;60518.97;5010759;28;20026;-79
2021/10/01 02:36:16;;;;;;;12.88;2.38;;;;;;;-146.90;100.00;60518.97;5009924;28;20036;-79
2021/10/01 02:38:42;;;;;;;7.60;2.20;;;;;;;-146.90;100.00;60518.97;5010813;28;20033;-79
2021/10/01 02:41:07;;;;;;;6.95;2.10;;;;;;;-146.90;100.00;60518.97;5011678;28;20029;-80
2021/10/01 02:43:32;;;;;;;9.63;2.33;;;;;;;-146.90;100.00;60518.97;5010926;28;20497;-78
2021/10/01 02:45:58;;;;;;;7.50;2.33;;;;;;;-146.90;100.00;60518.97;5010959;28;20080;-78
2021/10/01 02:48:23;;;;;;;12.82;2.70;;;;;;;-146.90;100.00;60518.97;5011849;28;20022;-78
2021/10/01 02:50:57;;;;;;;10.73;2.47;;;;;;;-146.90;100.00;60518.97;5009886;28;20030;-79
2021/10/01 02:53:29;;;;;;;7.30;2.00;;;;;;;-146.90;100.00;60518.97;4991239;28;20105;-78
2021/10/01 02:56:02;;;;;;;7.78;2.38;;;;;;;-146.90;100.00;60518.97;4990221;28;20070;-79
2021/10/01 02:58:40;;;;;;;9.57;2.17;;;;;;;-146.90;100.00;60518.97;4990737;28;20404;-79
2021/10/01 03:01:07;;;;;;;6.28;2.08;;;;;;;-146.90;100.00;60518.97;4990017;28;20030;-79
2021/10/01 03:03:40;;;;;;;9.93;2.28;;;;;;;-146.90;100.00;60518.97;4992095;28;20026;-77
2021/10/01 03:06:06;;;;;;;8.98;2.30;;;;;;;-146.90;100.00;60518.97;4989554;28;20033;-76
2021/10/01 03:08:31;;;;;;;8.63;2.10;;;;;;;-146.90;100.00;60518.97;4990767;28;20026;-77
2021/10/01 03:10:58;;;;;;;12.20;2.20;;;;;;;-146.90;100.00;60518.97;4991115;28;20472;-75
2021/10/01 03:13:25;;;;;;;7.38;2.20;;;;;;;-146.90;100.00;60518.97;4990638;28;20037;-74
2021/10/01 03:15:52;;;;;;;5.72;2.13;;;;;;;-146.90;100.00;60518.97;4989570;28;20650;-77
2021/10/01 03:18:18;;;;;;;10.52;3.30;;;;;;;-146.90;100.00;60518.97;4990473;28;20153;-76
2021/10/01 03:20:43;;;;;;;7.45;2.80;;;;;;;-146.90;100.00;60518.97;4990355;28;20500;-76
2021/10/01 03:23:10;;;;;;;6.43;1.98;;;;;;;-146.90;100.00;60518.97;4989686;28;20055;-77
2021/10/01 03:25:37;;;;;;;9.93;2.10;;;;;;;-146.90;100.00;60518.97;4989684;28;20029;-78
2021/10/01 03:28:03;;;;;;;7.63;2.20;;;;;;;-146.90;100.00;60518.97;4989673;28;20041;-76
2021/10/01 03:30:28;;;;;;;6.03;2.20;;;;;;;-146.90;100.00;60518.97;4991178;28;20026;-77
2021/10/01 03:32:54;;;;;;;7.60;2.13;;;;;;;-146.90;100.00;60518.97;4989971;28;20042;-78
2021/10/01 03:35:19;;;;;;;8.82;2.30;;;;;;;-146.90;100.00;60518.97;4990379;28;20154;-76
2021/10/01 03:37:45;;;;;;;8.43;2.47;;;;;;;-146.90;100.00;60518.97;4990297;28;20033;-76
2021/10/01 03:40:13;;;;;;;6.10;2.35;;;;;;;-146.90;100.00;60518.97;4990871;28;20027;-77
2021/10/01 03:42:39;;;;;;;7.63;2.58;;;;;;;-146.90;100.00;60518.97;4990818;28;20133;-76
2021/10/01 03:45:07;;;;;;;7.55;2.42;;;;;;;-146.90;100.00;60518.97;4989789;28;20026;-77
2021/10/01 03:47:32;;;;;;;10.43;2.80;;;;;;;-146.90;100.00;60518.97;4990195;28;20125;-76
2021/10/01 03:49:57;;;;;;;8.48;2.30;;;;;;;-146.90;100.00;60518.97;4989327;28;20068;-76
2021/10/01 03:52:23;;;;;;;10.63;2.45;;;;;;;-146.90;100.00;60518.97;5004060;28;20037;-78
2021/10/01 03:54:50;;;;;;;11.75;2.40;;;;;;;-146.90;100.00;60518.97;5002857;28;20041;-77
2021/10/01 03:57:16;;;;;;;8.18;2.40;;;;;;;-146.90;100.00;60518.97;5002288;28;20541;-77
2021/10/01 03:59:41;;;;;;;8.77;2.50;;;;;;;-146.90;100.00;60518.97;5008935;28;20042;-77
2021/10/01 04:02:07;;;;;;;9.88;2.50;;;;;;;-146.90;100.00;60518.97;5009785;28;20091;-77
2021/10/01 04:04:32;;;;;;;7.75;2.38;;;;;;;-146.90;100.00;60518.97;5010215;28;20060;-77
2021/10/01 04:06:58;;;;;;;5.63;2.33;;;;;;;-146.90;100.00;60518.97;5009157;28;20040;-77
2021/10/01 04:09:23;;;;;;;8.40;2.10;;;;;;;-146.90;100.00;60518.97;5008963;28;20025;-76
2021/10/01 04:11:49;;;;;;;5.78;2.00;;;;;;;-146.90;100.00;60518.97;5010099;28;20504;-74
2021/10/01 04:14:15;;;;;;;10.00;2.25;;;;;;;-146.90;100.00;60518.97;5009618;28;20051;-78
2021/10/01 04:16:40;;;;;;;6.80;2.10;;;;;;;-146.90;100.00;60518.97;5010000;28;20528;-75
2021/10/01 04:19:05;;;;;;;9.73;2.25;;;;;;;-146.90;100.00;60518.97;5009460;28;20563;-77
2021/10/01 04:21:31;;;;;;;5.65;2.20;;;;;;;-146.90;100.00;60518.97;5010078;28;20666;-75
2021/10/01 04:23:57;;;;;;;7.22;2.92;;;;;;;-146.90;100.00;60518.97;5009426;28;20421;-77
2021/10/01 04:26:22;;;;;;;5.88;2.22;;;;;;;-146.90;100.00;60518.97;5009244;28;20036;-75
2021/10/01 04:28:47;;;;;;;8.65;2.38;;;;;;;-146.90;100.00;60518.97;5009731;28;20022;-75
2021/10/01 04:31:13;;;;;;;10.68;2.53;;;;;;;-146.90;100.00;60518.97;5006294;28;20022;-75
2021/10/01 04:33:42;;;;;;;11.77;2.90;;;;;;;-146.90;100.00;60518.97;4998928;28;20026;-76
2021/10/01 04:36:07;;;;;;;6.80;2.20;;;;;;;-146.90;100.00;60518.97;4997794;28;20238;-75
2021/10/01 04:38:33;;;;;;;7.93;2.30;;;;;;;-146.90;100.00;60518.97;4999668;28;20033;-76
2021/10/01 04:40:59;;;;;;;11.57;2.33;;;;;;;-146.90;100.00;60518.97;4998461;28;20026;-75
2021/10/01 04:43:24;;;;;;;9.50;2.95;;;;;;;-146.90;100.00;60518.97;4998276;28;20030;-75
2021/10/01 04:45:50;;;;;;;9.43;3.20;;;;;;;-146.90;100.00;60518.97;4998132;28;20383;-77
2021/10/01 04:48:15;;;;;;;6.22;2.45;;;;;;;-146.90;100.00;60518.97;4999363;28;20023;-76
2021/10/01 04:50:40;;;;;;;6.47;2.28;;;;;;;-146.90;100.00;60518.97;4998723;28;20030;-77
2021/10/01 04:53:06;;;;;;;10.30;2.90;;;;;;;-146.90;100.00;60518.97;4996641;28;20027;-77
2021/10/01 04:55:32;;;;;;;10.18;2.42;;;;;;;-146.90;100.00;60518.97;4998642;28;20029;-76
2021/10/01 04:57:59;;;;;;;6.00;1.95;;;;;;;-146.90;100.00;60518.97;4997522;28;20030;-76
2021/10/01 05:00:25;;;;;;;13.32;2.70;;;;;;;-146.90;100.00;60518.97;4997569;28;20551;-75
2021/10/01 05:02:50;;;;;;;10.38;2.53;;;;;;;-146.90;100.00;60518.97;4998207;28;20026;-76
2021/10/01 05:05:15;;;;;;;8.75;2.30;;;;;;;-146.90;100.00;60518.97;4998240;28;20097;-76
2021/10/01 05:07:41;;;;;;;12.50;2.55;;;;;;;-146.90;100.00;60518.97;4998291;28;20022;-75
2021/10/01 05:10:07;;;;;;;11.23;2.20;;;;;;;-146.90;100.00;60518.97;4997887;28;20987;-75
2021/10/01 05:12:33;;;;;;;10.65;2.20;;;;;;;-146.90;100.00;60518.97;4998285;28;20023;-75
2021/10/01 05:14:58;;;;;;;11.73;2.90;;;;;;;-146.90;100.00;60518.97;4979613;28;20100;-76
2021/10/01 05:17:23;;;;;;;11.73;2.42;;;;;;;-146.90;100.00;60518.97;4998794;28;20024;-75
2021/10/01 05:19:49;;;;;;;7.75;2.38;;;;;;;-146.90;100.00;60518.97;4997794;28;20061;-75
2021/10/01 05:22:15;;;;;;;12.25;2.38;;;;;;;-146.90;100.00;60518.97;4988056;28;20036;-75
2021/10/01 05:24:41;;;;;;;8.10;2.33;;;;;;;-146.90;100.00;60518.97;5007607;28;20034;-75
2021/10/01 05:27:06;;;;;;;10.32;2.45;;;;;;;-146.90;100.00;60518.97;5007913;28;20084;-75
2021/10/01 05:29:32;;;;;;;9.70;2.17;;;;;;;-146.90;100.00;60518.97;5008557;28;20467;-77
2021/10/01 05:31:57;;;;;;;9.45;2.65;;;;;;;-146.90;100.00;60518.97;5006689;28;20435;-75
2021/10/01 05:34:23;;;;;;;17.35;3.45;;;;;;;-146.90;100.00;60518.97;4998303;28;20113;-76
2021/10/01 05:36:48;;;;;;;12.40;2.55;;;;;;;-146.90;100.00;60518.97;4998795;28;20428;-77
2021/10/01 05:39:13;;;;;;;7.32;2.60;;;;;;;-146.90;100.00;60518.97;4996974;28;20030;-78
2021/10/01 05:41:39;;;;;;;8.75;2.38;;;;;;;-146.90;100.00;60518.97;4997923;28;20377;-76
2021/10/01 05:44:04;;;;;;;9.40;2.35;;;;;;;-146.90;100.00;60518.97;4996410;28;20023;-74
2021/10/01 05:46:30;;;;;;;7.28;2.13;;;;;;;-146.90;100.00;60518.97;4997440;28;20026;-76
2021/10/01 05:49:00;;;;;;;5.60;2.13;;;;;;;-146.90;100.00;60518.97;4999145;28;20396;-76
2021/10/01 05:51:28;;;;;;;8.30;2.47;;;;;;;-146.90;100.00;60518.97;4999297;28;20018;-76
2021/10/01 05:56:34;;;;;;;11.43;2.63;;;;;;;-146.90;100.00;60518.97;4988676;28;20037;-77
2021/10/01 05:58:59;;;;;;;9.60;2.63;;;;;;;-146.90;100.00;60518.97;4987109;28;20113;-78
2021/10/01 06:01:24;;;;;;;12.27;2.50;;;;;;;-146.90;100.00;60518.97;4988967;28;20041;-78
2021/10/01 06:03:51;;;;;;;10.30;2.47;;;;;;;-146.90;100.00;60518.97;4987467;28;20500;-77
2021/10/01 06:06:19;;;;;;;5.65;2.33;;;;;;;-146.90;100.00;60518.97;4991478;28;20034;-76
2021/10/01 06:08:45;;;;;;;4.93;2.30;;;;;;;-146.90;100.00;60518.97;4992800;28;20057;-75
2021/10/01 06:11:11;;;;;;;10.07;2.67;;;;;;;-146.90;100.00;60518.97;4990826;28;20058;-74
2021/10/01 06:13:37;;;;;;;9.80;2.38;;;;;;;-146.90;100.00;60518.97;4995548;28;20384;-74
2021/10/01 06:16:03;;;;;;;8.07;2.28;;;;;;;-146.90;100.00;60518.97;4998027;28;20033;-74
2021/10/01 06:18:28;;;;;;;6.45;2.38;;;;;;;-146.90;100.00;60518.97;4992811;28;20030;-74
2021/10/01 06:20:54;;;;;;;6.65;2.03;;;;;;;-146.90;100.00;60518.97;5009339;28;20022;-75
2021/10/01 06:23:22;;;;;;;8.80;2.50;;;;;;;-146.90;100.00;60518.97;5012423;28;20033;-74
2021/10/01 06:25:48;;;;;;;6.97;1.98;;;;;;;-146.90;100.00;60518.97;5011172;28;20021;-76
2021/10/01 06:28:14;;;;;;;8.00;2.30;;;;;;;-146.90;100.00;60518.97;5011842;28;20032;-75
2021/10/01 06:30:40;;;;;;;11.70;2.55;;;;;;;-146.90;100.00;60518.97;5010889;28;20411;-76
2021/10/01 06:33:06;;;;;;;8.95;2.45;;;;;;;-146.90;100.00;60518.97;5007210;28;20052;-74
2021/10/01 06:35:31;;;;;;;10.38;2.15;;;;;;;-146.90;100.00;60518.97;5000667;28;20447;-74
2021/10/01 06:37:57;;;;;;;8.10;2.40;;;;;;;-146.90;100.00;60518.97;4982683;28;20026;-74
2021/10/01 06:40:22;;;;;;;11.30;2.03;;;;;;;-146.90;100.00;60518.97;5001029;28;20029;-74
2021/10/01 06:42:49;;;;;;;6.20;2.00;;;;;;;-146.90;100.00;60518.97;5000358;28;20034;-75
2021/10/01 06:45:21;;;;;;;11.40;2.20;;;;;;;-146.90;100.00;60518.97;5000254;28;20030;-75
2021/10/01 07:39:15;;;;;;;7.18;2.20;;;;;;;-146.90;100.00;60518.97;5007931;28;20403;-78
2021/10/01 08:19:41;;;;;;;12.43;2.50;;;;;;;-146.90;100.00;60518.97;5009529;28;20592;-75
2021/10/01 08:22:08;;;;;;;8.15;2.38;;;;;;;-146.90;100.00;60518.97;5008531;28;20160;-74
2021/10/01 08:24:35;;;;;;;9.27;2.10;;;;;;;-146.90;100.00;60518.97;5009430;28;20034;-75
2021/10/01 08:27:02;;;;;;;7.95;2.35;;;;;;;-146.90;100.00;60518.97;5008782;28;20030;-75
2021/10/01 08:29:27;;;;;;;7.20;2.30;;;;;;;-146.90;100.00;60518.97;5008381;28;20041;-75
2021/10/01 08:31:59;;;;;;;8.75;2.65;;;;;;;-146.90;100.00;60518.97;5007969;28;20018;-75
2021/10/01 08:34:24;;;;;;;13.60;2.67;;;;;;;-146.90;100.00;60518.97;5005038;28;20022;-74
2021/10/01 08:36:50;;;;;;;8.55;2.03;;;;;;;-146.90;100.00;60518.97;5008637;28;20372;-75
2021/10/01 08:39:15;;;;;;;11.23;2.78;;;;;;;-146.90;100.00;60518.97;5008445;28;20069;-78
2021/10/01 08:41:40;;;;;;;9.07;2.03;;;;;;;-146.90;100.00;60518.97;5010017;28;20383;-75
2021/10/01 08:44:07;;;;;;;9.05;2.55;;;;;;;-146.90;100.00;60518.97;5006679;28;20033;-77
2021/10/01 08:46:35;;;;;;;11.40;2.53;;;;;;;-146.90;100.00;60518.97;5007727;28;20467;-74
2021/10/01 08:49:04;;;;;;;10.27;2.28;;;;;;;-146.90;100.00;60518.97;5005875;28;20519;-78
2021/10/01 08:51:29;;;;;;;9.77;2.55;;;;;;;-146.90;100.00;60518.97;4988730;28;20037;-78
2021/10/01 08:53:55;;;;;;;11.77;2.63;;;;;;;-146.90;100.00;60518.97;4989454;28;20030;-80
2021/10/01 08:56:23;;;;;;;6.93;2.30;;;;;;;-146.90;100.00;60518.97;4988188;28;20034;-77
2021/10/01 08:58:49;;;;;;;9.85;2.22;;;;;;;-146.90;100.00;60518.97;4989217;28;20384;-79
2021/10/01 09:01:14;;;;;;;8.68;2.45;;;;;;;-146.90;100.00;60518.97;4989342;28;20034;-77
2021/10/01 09:03:41;;;;;;;9.75;2.47;;;;;;;-146.90;100.00;60518.97;4989549;28;20037;-79
2021/10/01 09:06:07;;;;;;;7.75;2.53;;;;;;;-146.90;100.00;60518.97;4988147;28;20030;-77
2021/10/01 09:08:34;;;;;;;8.85;2.28;;;;;;;-146.90;100.00;60518.97;5009275;28;20416;-78
2021/10/01 09:11:01;;;;;;;7.57;2.40;;;;;;;-146.90;100.00;60518.97;5006904;28;20042;-77
2021/10/01 09:13:27;;;;;;;7.78;2.88;;;;;;;-146.90;100.00;60518.97;5009557;28;20048;-77
2021/10/01 09:16:02;;;;;;;11.20;2.58;;;;;;;-146.90;100.00;60518.97;5008157;28;20468;-76
2021/10/01 09:18:29;;;;;;;6.85;2.40;;;;;;;-146.90;100.00;60518.97;5008872;28;20080;-77
2021/10/01 09:21:20;;;;;;;8.80;2.25;;;;;;;-146.90;100.00;60518.97;5001003;28;20034;-77
2021/10/01 09:24:04;;;;;;;10.15;2.90;;;;;;;-146.90;100.00;60518.97;4988512;28;20062;-77
2021/10/01 09:26:31;;;;;;;8.43;2.50;;;;;;;-146.90;100.00;60518.97;4999010;28;20030;-78
2021/10/01 09:29:07;;;;;;;8.75;2.40;;;;;;;-146.90;100.00;60518.97;4996981;28;20433;-78
2021/10/01 09:31:32;;;;;;;8.65;2.70;;;;;;;-146.90;100.00;60518.97;4998048;28;20170;-77
2021/10/01 09:33:58;;;;;;;7.97;2.40;;;;;;;-146.90;100.00;60518.97;4999992;28;20480;-79
2021/10/01 09:36:25;;;;;;;8.90;2.67;;;;;;;-146.90;100.00;60518.97;5004438;28;20448;-76
2021/10/01 09:38:51;;;;;;;8.80;2.60;;;;;;;-146.90;100.00;60518.97;5007032;28;20026;-76
2021/10/01 09:41:30;;;;;;;14.98;2.63;;;;;;;-146.90;100.00;60518.97;5011894;28;20067;-75
2021/10/01 09:44:09;;;;;;;11.38;2.40;;;;;;;-146.90;100.00;60518.97;5000705;28;20468;-79
2021/10/01 09:46:43;;;;;;;12.57;2.55;;;;;;;-146.90;100.00;60518.97;4992860;28;20070;-79
2021/10/01 09:49:09;;;;;;;11.88;3.17;;;;;;;-146.90;100.00;60518.97;4975126;28;20030;-79
2021/10/01 09:51:36;;;;;;;7.95;2.92;;;;;;;-146.90;100.00;60518.97;5000872;28;20026;-79
2021/10/01 09:54:11;;;;;;;8.65;2.33;;;;;;;-146.90;100.00;60518.97;5012561;28;20032;-77
2021/10/01 09:56:36;;;;;;;10.98;2.85;;;;;;;-146.90;100.00;60518.97;5011398;28;20530;-77
2021/10/01 09:59:19;;;;;;;7.20;2.70;;;;;;;-146.90;100.00;60518.97;5004758;28;20073;-80
2021/10/01 10:02:00;;;;;;;9.27;2.60;;;;;;;-146.90;100.00;60518.97;5001959;28;20026;-79
2021/10/01 10:04:27;;;;;;;9.32;2.35;;;;;;;-146.90;100.00;60518.97;5008942;28;20058;-77
2021/10/01 10:06:54;;;;;;;8.55;2.60;;;;;;;-146.90;100.00;60518.97;5001177;28;20050;-78
2021/10/01 10:09:31;;;;;;;8.32;2.70;;;;;;;-146.90;100.00;60518.97;5001354;28;20434;-77
2021/10/01 10:11:56;;;;;;;9.82;2.40;;;;;;;-146.90;100.00;60518.97;5001634;28;20092;-78
2021/10/01 10:14:21;;;;;;;8.55;2.20;;;;;;;-146.90;100.00;60518.97;5009416;28;20064;-78
2021/10/01 10:16:47;;;;;;;11.02;3.13;;;;;;;-146.90;100.00;60518.97;5010875;28;20025;-77
2021/10/01 10:19:20;;;;;;;6.88;2.35;;;;;;;-146.90;100.00;60518.97;5010639;28;20045;-78
2021/10/01 10:21:46;;;;;;;8.63;3.30;;;;;;;-146.90;100.00;60518.97;5012491;28;20030;-76
2021/10/01 10:24:11;;;;;;;7.13;2.30;;;;;;;-146.90;100.00;60518.97;5001410;28;20097;-76
2021/10/01 10:26:37;;;;;;;14.60;2.20;;;;;;;-146.90;100.00;60518.97;5006299;28;20361;-77
2021/10/01 10:29:05;;;;;;;7.90;2.58;;;;;;;-146.90;100.00;60518.97;5009823;28;20057;-75
2021/10/01 10:31:33;;;;;;;13.25;2.90;;;;;;;-146.90;100.00;60518.97;5008219;28;20030;-75
2021/10/01 10:33:58;;;;;;;6.82;2.30;;;;;;;-146.90;100.00;60518.97;5011481;28;20050;-75
2021/10/01 10:36:44;;;;;;;8.68;2.33;;;;;;;-146.90;100.00;60518.97;5010980;28;20648;-75
2021/10/01 10:39:12;;;;;;;4.65;1.85;;;;;;;-146.90;100.00;60518.97;5010665;28;20538;-75
2021/10/01 10:41:50;;;;;;;7.63;2.95;;;;;;;-146.90;100.00;60518.97;5007241;28;20029;-84
2021/10/01 10:44:16;;;;;;;9.50;2.58;;;;;;;-146.90;100.00;60518.97;4997464;28;20121;-78
2021/10/01 10:46:43;;;;;;;11.13;2.60;;;;;;;-146.90;100.00;60518.97;4991067;28;20025;-77
2021/10/01 10:51:58;;;;;;;8.40;2.35;;;;;;;-146.90;100.00;60518.97;4998145;28;20101;-79
2021/10/01 10:54:33;;;;;;;8.43;2.78;;;;;;;-146.90;100.00;60518.97;5010182;28;20025;-80
2021/10/01 10:57:26;;;;;;;7.53;2.38;;;;;;;-146.90;100.00;60518.97;4998266;28;20068;-79
2021/10/01 11:00:02;;;;;;;7.95;2.70;;;;;;;-146.90;100.00;60518.97;4988213;28;20043;-77
2021/10/01 11:02:41;;;;;;;9.65;2.80;;;;;;;-146.90;100.00;60518.97;4995636;28;20040;-76
2021/10/01 11:05:26;;;;;;;9.23;2.40;;;;;;;-146.90;100.00;60518.97;5009377;28;20552;-76
2021/10/01 11:07:53;;;;;;;10.80;2.85;;;;;;;-146.90;100.00;60518.97;5001771;28;20041;-75
2021/10/01 11:10:39;;;;;;;10.93;2.58;;;;;;;-146.90;100.00;60518.97;4992283;28;20076;-75
2021/10/01 11:13:23;;;;;;;9.45;2.85;;;;;;;-146.90;100.00;60518.97;4997788;28;20033;-73
2021/10/01 11:16:12;;;;;;;10.23;2.83;;;;;;;-146.90;100.00;60518.97;5010488;28;20037;-73
2021/10/01 11:18:47;;;;;;;8.68;2.58;;;;;;;-146.90;100.00;60518.97;5011217;28;20108;-77
2021/10/01 11:21:24;;;;;;;14.23;3.72;;;;;;;-146.90;100.00;60518.97;5010155;28;20040;-76
2021/10/01 11:24:00;;;;;;;8.02;2.63;;;;;;;-146.90;100.00;60518.97;5010861;28;20119;-77
2021/10/01 11:26:34;;;;;;;10.70;2.65;;;;;;;-146.90;100.00;60518.97;4992845;28;20041;-78
2021/10/01 11:29:01;;;;;;;8.45;2.60;;;;;;;-146.90;100.00;60518.97;4990714;28;20531;-78
2021/10/01 11:31:44;;;;;;;11.15;2.88;;;;;;;-146.90;100.00;60518.97;5006247;28;20531;-78
2021/10/01 11:34:09;;;;;;;11.13;3.03;;;;;;;-146.90;100.00;60518.97;5010380;28;20114;-76
2021/10/01 11:36:39;;;;;;;9.80;2.58;;;;;;;-146.90;100.00;60518.97;5009303;28;20607;-76
2021/10/01 11:39:14;;;;;;;7.57;2.60;;;;;;;-146.90;100.00;60518.97;5010053;28;20108;-79
2021/10/01 11:41:45;;;;;;;9.27;2.60;;;;;;;-146.90;100.00;60518.97;5009364;28;20152;-76
2021/10/01 11:44:12;;;;;;;8.38;2.55;;;;;;;-146.90;100.00;60518.97;5009964;28;20030;-75
2021/10/01 11:46:44;;;;;;;6.78;2.20;;;;;;;-146.90;100.00;60518.97;5008462;28;20111;-76
2021/10/01 11:49:28;;;;;;;7.70;2.80;;;;;;;-146.90;100.00;60518.97;5006807;28;20036;-81
2021/10/01 11:52:01;;;;;;;9.40;2.25;;;;;;;-146.90;100.00;60518.97;4995796;28;20038;-77
2021/10/01 11:54:26;;;;;;;10.73;2.85;;;;;;;-146.90;100.00;60518.97;4990690;28;20042;-77
2021/10/01 11:56:57;;;;;;;13.98;2.53;;;;;;;-146.90;100.00;60518.97;4996872;28;20079;-75
2021/10/01 11:59:25;;;;;;;9.95;2.90;;;;;;;-146.90;100.00;60518.97;5017019;28;20121;-75
2021/10/01 12:01:57;;;;;;;9.75;2.60;;;;;;;-146.90;100.00;60518.97;5009827;28;20033;-77
2021/10/01 12:04:30;;;;;;;8.43;2.60;;;;;;;-146.90;100.00;60518.97;5009538;28;20416;-77
2021/10/01 12:07:04;;;;;;;8.05;2.35;;;;;;;-146.90;100.00;60518.97;5008850;28;20028;-75
2021/10/01 12:09:29;;;;;;;8.68;2.75;;;;;;;-146.90;100.00;60518.97;5009579;28;20054;-75
2021/10/01 12:11:54;;;;;;;12.85;2.90;;;;;;;-146.90;100.00;60518.97;5009161;28;20057;-75
2021/10/01 12:14:21;;;;;;;9.10;2.58;;;;;;;-146.90;100.00;60518.97;5024512;28;20748;-76
2021/10/01 12:16:58;;;;;;;11.18;3.15;;;;;;;-146.90;100.00;60518.97;5024208;28;20113;-76
2021/10/01 12:19:24;;;;;;;9.10;2.80;;;;;;;-146.90;100.00;60518.97;5009684;28;20045;-77
2021/10/01 12:22:02;;;;;;;7.38;2.42;;;;;;;-146.90;100.00;60518.97;5008397;28;20022;-75
2021/10/01 12:24:27;;;;;;;11.00;2.40;;;;;;;-146.90;100.00;60518.97;5008474;28;20037;-76
2021/10/01 12:26:55;;;;;;;12.45;3.40;;;;;;;-146.90;100.00;60518.97;5008743;28;20026;-75
2021/10/01 12:29:23;;;;;;;8.93;2.65;;;;;;;-146.90;100.00;60518.97;5009916;28;20029;-76
2021/10/01 12:31:58;;;;;;;11.10;2.58;;;;;;;-146.90;100.00;60518.97;5008278;28;20057;-75
2021/10/01 12:34:25;;;;;;;7.60;2.50;;;;;;;-146.90;100.00;60518.97;5008332;28;20463;-76
2021/10/01 12:36:53;;;;;;;7.78;2.38;;;;;;;-146.90;100.00;60518.97;5008804;28;20030;-74
2021/10/01 12:39:22;;;;;;;10.13;2.90;;;;;;;-146.90;100.00;60518.97;5024420;28;20040;-76
2021/10/01 12:41:59;;;;;;;13.43;2.83;;;;;;;-146.90;100.00;60518.97;5008144;28;20026;-76
2021/10/01 12:44:25;;;;;;;9.60;2.25;;;;;;;-146.90;100.00;60518.97;5004132;28;20030;-74
2021/10/01 12:46:52;;;;;;;8.90;2.67;;;;;;;-146.90;100.00;60518.97;4988537;28;20076;-76
2021/10/01 12:49:28;;;;;;;8.73;2.50;;;;;;;-146.90;100.00;60518.97;4988312;28;20433;-76
2021/10/01 12:52:19;;;;;;;11.77;2.70;;;;;;;-146.90;100.00;60518.97;4999606;28;20029;-76